Weather reports worldwide

Advertisment
Rolo, Italy (16143): temperature & dewpoint: 12.06.2019 04:00:00 - 18.06.2019 04:00:00 (CEST)Rolo, Italy (16143): wind speed: 12.06.2019 04:00:00 - 18.06.2019 04:00:00 (CEST)Rolo, Italy (16143): wind direction: 12.06.2019 04:00:00 - 18.06.2019 04:00:00 (CEST)Rolo, Italy (16143): reduced air pressure: 12.06.2019 04:00:00 - 18.06.2019 04:00:00 (CEST)Rolo, Italy (16143): precipitation: 12.06.2019 04:00:00 - 18.06.2019 04:00:00 (CEST)
Date & Time tt [°C] td [°C] ff [km/h] ff [kn] dd ppp [hPa] rr [mm]
18.06.2019 04:00:00 - - - - - - -
18.06.2019 03:00:00 17,3 14,6 3 2 ENE 1015,5 0,0
18.06.2019 02:00:00 17,7 14,8 6 3 ENE 1015,7 0,0
18.06.2019 01:00:00 - - - - - - -
18.06.2019 00:00:00 - - - - - - -
17.06.2019 23:00:00 21,4 16,1 5 3 ESE 1014,9 0,0
17.06.2019 22:00:00 22,0 14,6 8 4 E 1014,6 0,0
17.06.2019 21:00:00 23,9 14,9 8 4 E 1014,0 0,0
17.06.2019 20:00:00 27,7 15,0 8 5 ENE 1013,7 0,0
17.06.2019 19:00:00 29,6 14,6 12 7 ENE 1013,7 0,0
17.06.2019 18:00:00 30,6 16,6 10 6 E 1013,8 0,0
17.06.2019 17:00:00 30,8 16,4 6 4 E 1013,9 0,0
17.06.2019 16:00:00 30,8 16,8 8 4 ESE 1014,4 0,0
17.06.2019 15:00:00 29,4 17,9 7 4 E 1015,1 0,0
17.06.2019 14:00:00 29,2 18,0 8 5 ENE 1015,4 0,0
17.06.2019 13:00:00 30,2 16,6 6 3 ESE 1015,7 0,0
17.06.2019 12:00:00 29,6 17,1 11 6 E 1016,0 0,0
17.06.2019 11:00:00 28,7 16,6 13 7 E 1016,2 0,0
17.06.2019 10:00:00 27,9 16,8 15 8 ESE 1016,1 0,0
17.06.2019 09:00:00 26,2 17,3 12 6 NE 1016,1 0,0
17.06.2019 08:00:00 23,5 15,8 3 2 WNW 1015,7 0,0
17.06.2019 07:00:00 20,3 15,3 5 3 WSW 1015,3 0,0
17.06.2019 06:00:00 15,3 12,8 5 3 WSW 1014,9 0,0
17.06.2019 05:00:00 14,7 12,2 2 1 WSW 1014,4 0,0
17.06.2019 04:00:00 15,9 13,0 8 4 NNE 1014,3 0,0
17.06.2019 03:00:00 16,1 13,0 4 2 SW 1014,0 0,0
17.06.2019 02:00:00 15,6 12,7 4 2 WSW 1014,0 0,0
17.06.2019 01:00:00 17,2 13,5 3 2 S 1013,8 0,0
17.06.2019 00:00:00 20,3 11,8 8 5 SW 1013,2 0,0
16.06.2019 23:00:00 20,8 13,0 7 4 SSW 1013,0 0,0
16.06.2019 22:00:00 22,7 12,0 7 4 W 1012,4 0,0
16.06.2019 21:00:00 24,8 11,7 7 4 W 1012,1 0,0
16.06.2019 20:00:00 28,5 12,0 7 4 WSW 1012,2 0,0
16.06.2019 19:00:00 30,2 11,7 9 5 W 1012,1 0,0
16.06.2019 18:00:00 30,9 11,8 12 6 W 1012,1 0,0
16.06.2019 17:00:00 31,2 12,1 10 5 WNW 1012,4 0,0
16.06.2019 16:00:00 30,9 13,2 14 8 W 1012,7 0,0
16.06.2019 15:00:00 30,4 14,1 12 7 WNW 1013,2 0,0
16.06.2019 14:00:00 29,8 14,0 14 7 WNW 1013,7 0,0
16.06.2019 13:00:00 28,7 14,5 17 9 WNW 1014,0 0,0
16.06.2019 12:00:00 27,4 16,4 16 9 W 1014,2 0,0
16.06.2019 11:00:00 26,2 16,2 13 7 W 1014,4 0,0
16.06.2019 10:00:00 24,5 16,2 16 9 W 1014,3 0,0
16.06.2019 09:00:00 23,6 16,1 13 7 W 1014,4 0,0
16.06.2019 08:00:00 22,2 15,3 12 7 W 1014,0 0,0
16.06.2019 07:00:00 20,1 14,9 6 4 W 1013,7 0,0
16.06.2019 06:00:00 17,8 14,1 6 4 W 1013,7 0,0
16.06.2019 05:00:00 18,0 14,1 10 6 W 1013,3 0,0
16.06.2019 04:00:00 19,8 14,2 10 5 W 1013,1 0,0
16.06.2019 03:00:00 20,5 14,6 10 6 W 1013,1 0,0
16.06.2019 02:00:00 20,9 14,8 10 5 W 1013,4 0,0
16.06.2019 01:00:00 21,0 14,9 10 6 W 1013,6 0,0
16.06.2019 00:00:00 22,9 13,1 16 9 WSW 1013,2 0,0
15.06.2019 23:00:00 22,1 15,7 5 3 W 1013,0 0,0
15.06.2019 22:00:00 22,0 17,4 8 4 W 1012,7 0,0
15.06.2019 21:00:00 24,7 19,1 1 1 W 1011,7 0,0
15.06.2019 20:00:00 28,7 17,6 4 2 WNW 1011,8 0,0
15.06.2019 19:00:00 29,7 17,5 6 3 WNW 1012,1 0,0
15.06.2019 18:00:00 30,7 17,4 6 3 W 1012,2 0,0
15.06.2019 17:00:00 30,1 17,2 10 6 W 1012,6 0,0
15.06.2019 16:00:00 30,5 17,2 12 7 W 1012,9 0,0
15.06.2019 15:00:00 30,0 17,1 9 5 W 1013,3 0,0
15.06.2019 14:00:00 28,5 16,4 14 8 WNW 1013,6 0,0
15.06.2019 13:00:00 28,6 17,8 13 7 W 1013,9 0,0
15.06.2019 12:00:00 27,7 17,2 12 6 W 1014,1 0,0
15.06.2019 11:00:00 27,0 17,2 13 7 W 1014,2 0,0
15.06.2019 10:00:00 25,5 14,9 15 8 W 1014,2 0,0
15.06.2019 09:00:00 24,7 14,5 13 7 W 1014,1 0,0
15.06.2019 08:00:00 23,3 15,4 4 2 SW 1013,7 0,0
15.06.2019 07:00:00 20,7 15,5 4 2 WSW 1013,4 0,0
15.06.2019 06:00:00 17,7 14,6 5 3 W 1013,2 0,0
15.06.2019 05:00:00 17,3 14,4 6 3 NNE 1013,1 0,0
15.06.2019 04:00:00 18,4 15,3 5 3 NNW 1013,6 0,0
15.06.2019 03:00:00 20,1 15,5 5 3 W 1013,5 0,0
15.06.2019 02:00:00 22,1 15,0 9 5 ESE 1013,4 0,0
15.06.2019 01:00:00 22,6 15,2 13 7 E 1013,7 0,0
15.06.2019 00:00:00 22,6 16,6 8 5 ENE 1014,4 0,0
14.06.2019 23:00:00 23,1 17,1 10 5 E 1014,6 0,0
14.06.2019 22:00:00 23,9 17,4 11 6 ENE 1014,7 0,0
14.06.2019 21:00:00 24,3 18,0 4 2 NE 1015,2 0,0
14.06.2019 20:00:00 26,3 17,6 12 6 E 1014,7 0,0
14.06.2019 19:00:00 27,3 17,5 12 6 E 1014,3 0,0
14.06.2019 18:00:00 - - - - - - -
14.06.2019 17:00:00 29,3 16,5 18 10 E 1015,0 0,0
14.06.2019 16:00:00 29,9 17,7 23 13 ENE 1015,5 0,0
14.06.2019 15:00:00 30,6 17,7 18 10 ENE 1015,8 0,0
14.06.2019 14:00:00 30,3 16,7 14 8 E 1016,9 0,0
14.06.2019 13:00:00 29,0 16,2 16 9 E 1017,6 0,0
14.06.2019 12:00:00 27,9 15,2 13 7 ENE 1018,0 0,0
14.06.2019 11:00:00 27,0 13,7 10 5 E 1018,5 0,0
14.06.2019 10:00:00 24,5 13,7 5 3 NNE 1018,6 0,0
14.06.2019 09:00:00 22,2 11,6 9 5 NW 1018,9 0,0
14.06.2019 08:00:00 20,3 9,8 9 5 WNW 1018,7 0,0
14.06.2019 07:00:00 18,5 9,3 10 5 WSW 1017,9 0,0
14.06.2019 06:00:00 15,7 9,1 5 3 SW 1017,5 0,0
14.06.2019 05:00:00 15,2 9,3 3 2 WSW 1017,4 0,0
14.06.2019 04:00:00 17,7 8,5 14 7 W 1017,3 0,0
14.06.2019 03:00:00 18,4 8,6 10 5 W 1017,3 0,0
14.06.2019 02:00:00 18,7 9,7 12 6 W 1017,2 0,0
14.06.2019 01:00:00 17,4 11,4 8 4 W 1017,5 0,0
14.06.2019 00:00:00 18,2 10,8 2 1 NNE 1017,2 0,0
13.06.2019 23:00:00 19,4 10,9 5 3 NNE 1016,7 0,0
13.06.2019 22:00:00 19,1 13,5 5 3 N 1016,3 -
13.06.2019 21:00:00 22,4 13,2 4 2 NNW 1015,5 0,0
13.06.2019 20:00:00 27,0 12,6 5 3 N 1015,2 0,0
13.06.2019 19:00:00 29,3 10,4 6 4 NNE 1014,9 0,0
13.06.2019 18:00:00 30,2 7,4 5 3 N 1015,0 0,0
13.06.2019 17:00:00 29,9 6,5 2 1 NE 1014,9 0,0
13.06.2019 16:00:00 29,7 7,0 5 3 E 1015,0 0,0
13.06.2019 15:00:00 29,2 5,3 5 3 WNW 1015,2 0,0
13.06.2019 14:00:00 28,4 7,0 7 4 NW 1015,2 0,0
13.06.2019 13:00:00 26,8 8,3 6 4 W 1015,4 0,0
13.06.2019 12:00:00 25,8 7,4 11 6 WNW 1015,5 0,0
13.06.2019 11:00:00 24,7 7,8 10 6 WSW 1015,6 0,0
13.06.2019 10:00:00 23,0 7,9 10 6 W 1015,4 0,0
13.06.2019 09:00:00 20,8 9,4 10 5 WSW 1015,2 0,0
13.06.2019 08:00:00 18,7 9,2 6 3 WSW 1014,7 0,0
13.06.2019 07:00:00 15,1 8,1 5 3 S 1014,3 0,0
13.06.2019 06:00:00 12,4 7,1 5 3 SSW 1013,8 0,0
13.06.2019 05:00:00 13,6 6,5 8 4 W 1013,0 0,0
13.06.2019 04:00:00 16,5 5,5 8 4 W 1012,8 0,0
13.06.2019 03:00:00 17,4 4,4 10 5 W 1012,4 0,0
13.06.2019 02:00:00 18,6 6,4 10 6 W 1012,4 0,0
13.06.2019 01:00:00 19,8 9,1 10 6 W 1012,2 0,0
13.06.2019 00:00:00 19,8 10,5 7 4 WNW 1011,7 0,0
12.06.2019 23:00:00 22,1 9,6 9 5 W 1011,2 0,0
12.06.2019 22:00:00 23,4 10,5 9 5 WSW 1010,6 0,0
12.06.2019 21:00:00 25,5 11,6 14 8 W 1009,7 0,0
12.06.2019 20:00:00 24,2 17,9 5 3 W 1009,7 0,0
12.06.2019 19:00:00 27,1 17,6 9 5 SSW 1009,2 0,0
12.06.2019 18:00:00 30,0 13,7 4 2 NW 1008,7 0,0
12.06.2019 17:00:00 31,3 13,1 3 2 S 1008,8 0,0
12.06.2019 16:00:00 31,0 14,6 6 3 N 1008,7 0,0
12.06.2019 15:00:00 31,3 14,4 6 3 NNW 1008,8 0,0
12.06.2019 14:00:00 30,8 14,8 7 4 SE 1009,1 0,0
12.06.2019 13:00:00 29,8 16,9 7 4 ESE 1009,2 0,0
12.06.2019 12:00:00 28,9 16,5 5 3 W 1009,2 0,0
12.06.2019 11:00:00 28,0 16,9 5 3 SSE 1009,2 0,0
12.06.2019 10:00:00 26,3 18,4 9 5 W 1008,8 0,0
12.06.2019 09:00:00 25,3 19,2 3 2 NNW 1008,5 0,0
12.06.2019 08:00:00 23,4 19,5 2 1 S 1008,4 0,0
12.06.2019 07:00:00 21,8 19,5 1 0 S 1008,0 0,0
12.06.2019 06:00:00 21,2 19,3 6 3 ENE 1008,0 0,0
12.06.2019 05:00:00 20,7 18,6 1 1 ESE 1007,9 0,0
12.06.2019 04:00:00 21,3 19,0 9 5 E 1007,9 0,0

tt = temperature
td = dewpoint
ff = wind speed
dd = wind direction
ppp = reduced air pressure
rr = precipitation

Next stations